Time;durP1;ratioP1;P1;durP2;ratioP2;P2;SDS_P1;SDS_P2;PMS_P1;PMS_P2;Temp;Humidity;BMP_temperature;BMP_pressure;BME280_temperature;BME280_humidity;BME280_pressure;Samples;Min_cycle;Max_cycle;Signal;HPM_P1;HPM_P2
2023/06/22 00:01:55;;;;;;;7.80;4.85;;;;;;;24.75;92.84;100195.63;5037098;28;20056;-65
2023/06/22 00:04:20;;;;;;;9.90;4.95;;;;;;;24.72;92.88;100223.09;5028469;28;20084;-65
2023/06/22 00:06:46;;;;;;;7.88;4.65;;;;;;;24.73;92.26;100185.88;5028185;28;20036;-65
2023/06/22 00:09:11;;;;;;;9.90;5.57;;;;;;;24.73;91.83;100026.19;5028598;28;20731;-65
2023/06/22 00:11:37;;;;;;;8.57;4.15;;;;;;;24.73;91.48;99913.81;5047109;28;20113;-64
2023/06/22 00:14:04;;;;;;;8.48;4.15;;;;;;;24.65;91.31;99963.44;5047403;28;20047;-65
2023/06/22 00:16:31;;;;;;;7.93;4.60;;;;;;;24.54;92.80;99998.91;5046701;28;20488;-64
2023/06/22 00:19:00;;;;;;;8.25;4.72;;;;;;;24.55;93.09;100025.09;5047622;28;20115;-64
2023/06/22 00:21:26;;;;;;;7.95;4.50;;;;;;;24.49;93.75;99993.03;5047261;28;20045;-65
2023/06/22 00:23:51;;;;;;;8.43;4.30;;;;;;;24.42;94.94;99973.69;5047557;28;20559;-64
2023/06/22 00:26:17;;;;;;;9.55;5.00;;;;;;;24.33;96.05;99988.09;5046867;28;20029;-65
2023/06/22 00:28:42;;;;;;;8.95;5.28;;;;;;;24.25;96.24;100000.69;5047308;28;20032;-65
2023/06/22 00:31:08;;;;;;;10.45;4.78;;;;;;;24.10;96.81;99992.00;5047952;28;20520;-64
2023/06/22 00:33:33;;;;;;;8.90;4.50;;;;;;;24.16;97.02;100001.47;5047003;28;20032;-65
2023/06/22 00:35:59;;;;;;;9.02;4.63;;;;;;;24.09;97.68;100005.72;5045779;28;20049;-64
2023/06/22 00:38:27;;;;;;;9.57;4.65;;;;;;;23.99;98.28;100005.69;5046119;28;20103;-65
2023/06/22 00:40:52;;;;;;;9.73;4.70;;;;;;;23.92;98.91;100003.63;5046878;28;20480;-65
2023/06/22 00:43:18;;;;;;;7.68;4.57;;;;;;;23.89;99.68;99998.41;5046371;28;20029;-65
2023/06/22 00:45:43;;;;;;;7.00;4.80;;;;;;;23.81;100.00;99992.81;5047074;28;20017;-65
2023/06/22 00:48:09;;;;;;;6.88;4.30;;;;;;;23.78;100.00;99996.66;5046344;28;20048;-65
2023/06/22 00:50:35;;;;;;;10.93;4.93;;;;;;;23.74;100.00;99999.78;5047108;28;20028;-65
2023/06/22 00:53:08;;;;;;;8.30;4.50;;;;;;;23.69;100.00;99985.75;5047053;28;20031;-64
2023/06/22 00:55:38;;;;;;;12.57;6.03;;;;;;;23.60;100.00;99987.41;5046691;28;20048;-65
2023/06/22 00:58:07;;;;;;;10.05;4.53;;;;;;;23.56;100.00;99983.22;5046200;28;20526;-65
2023/06/22 01:00:41;;;;;;;11.77;4.50;;;;;;;23.52;100.00;99984.47;5046855;28;20024;-65
2023/06/22 01:03:10;;;;;;;12.95;5.10;;;;;;;23.46;100.00;99989.59;5046237;28;20803;-65
2023/06/22 01:05:36;;;;;;;9.45;4.90;;;;;;;23.39;100.00;99987.38;5047480;28;20036;-64
2023/06/22 01:08:34;;;;;;;10.05;5.05;;;;;;;23.27;100.00;100002.00;5046448;28;20025;-65
2023/06/22 01:11:23;;;;;;;10.68;5.57;;;;;;;23.26;100.00;100000.28;5047357;28;20060;-65
2023/06/22 01:13:59;;;;;;;9.32;5.10;;;;;;;23.07;100.00;99978.38;5046722;28;20829;-64
2023/06/22 01:16:36;;;;;;;12.90;5.40;;;;;;;23.19;100.00;100000.91;5046922;28;20078;-64
2023/06/22 01:19:20;;;;;;;9.48;5.35;;;;;;;23.14;100.00;99995.88;5047434;28;20033;-64
2023/06/22 01:21:47;;;;;;;10.57;5.50;;;;;;;23.11;100.00;99998.81;5047304;28;20115;-65
2023/06/22 01:24:27;;;;;;;8.73;5.53;;;;;;;23.05;100.00;99993.91;5047231;28;20040;-65
2023/06/22 01:27:36;;;;;;;8.32;5.25;;;;;;;23.01;100.00;99994.31;5047104;28;20043;-64
2023/06/22 01:30:05;;;;;;;11.35;5.60;;;;;;;23.02;100.00;99991.47;5000102;28;20522;-65
2023/06/22 01:32:32;;;;;;;9.60;5.60;;;;;;;23.01;100.00;99988.88;5047013;28;20100;-65
2023/06/22 01:35:01;;;;;;;10.15;5.32;;;;;;;22.96;100.00;99989.28;5046616;28;20032;-65
2023/06/22 01:37:32;;;;;;;11.65;5.53;;;;;;;22.97;100.00;99981.97;5047215;28;20029;-65
2023/06/22 01:39:58;;;;;;;10.63;5.38;;;;;;;22.92;100.00;99984.22;5049204;28;20102;-65
2023/06/22 01:42:27;;;;;;;13.20;6.13;;;;;;;22.89;100.00;99990.78;5049944;28;20025;-65
2023/06/22 01:44:53;;;;;;;9.10;5.45;;;;;;;22.87;100.00;99992.75;5049062;28;20040;-65
2023/06/22 01:47:20;;;;;;;7.82;4.82;;;;;;;22.86;100.00;99980.19;5050068;28;20037;-65
2023/06/22 01:49:46;;;;;;;9.60;6.10;;;;;;;22.82;100.00;99984.13;5050231;28;20368;-64
2023/06/22 01:52:12;;;;;;;10.63;5.63;;;;;;;22.82;100.00;99981.41;5049631;28;20094;-64
2023/06/22 01:54:39;;;;;;;9.57;5.88;;;;;;;22.81;100.00;99990.56;5048610;28;20108;-65
2023/06/22 01:57:05;;;;;;;9.05;5.32;;;;;;;22.84;100.00;99989.44;5032534;28;20035;-65
2023/06/22 01:59:48;;;;;;;11.05;5.40;;;;;;;22.82;100.00;99978.69;5050312;28;20020;-65
2023/06/22 02:02:16;;;;;;;11.20;5.80;;;;;;;22.75;100.00;99976.66;5050129;28;20038;-65
2023/06/22 02:04:54;;;;;;;10.73;5.53;;;;;;;22.78;100.00;99973.66;5030584;28;20507;-65
2023/06/22 02:07:23;;;;;;;9.00;5.68;;;;;;;22.76;100.00;99995.50;5030651;28;20035;-65
2023/06/22 02:09:52;;;;;;;11.20;5.63;;;;;;;22.76;100.00;99989.19;5004150;28;20057;-65
2023/06/22 02:12:22;;;;;;;9.32;5.68;;;;;;;22.77;100.00;99978.22;5030502;28;20393;-65
2023/06/22 02:14:48;;;;;;;11.68;4.90;;;;;;;22.72;100.00;99975.03;5030579;28;20021;-65
2023/06/22 02:17:14;;;;;;;11.15;6.28;;;;;;;22.68;100.00;99960.03;5029366;28;20732;-65
2023/06/22 02:19:42;;;;;;;13.32;6.30;;;;;;;22.67;100.00;99952.84;5030461;28;20041;-65
2023/06/22 02:22:08;;;;;;;9.55;5.50;;;;;;;22.64;100.00;99961.25;5029725;28;20112;-65
2023/06/22 02:24:33;;;;;;;9.68;4.53;;;;;;;22.64;100.00;99955.81;5030014;28;20104;-64
2023/06/22 02:27:00;;;;;;;10.48;5.55;;;;;;;22.63;100.00;99956.81;5012385;28;20056;-65
2023/06/22 02:29:27;;;;;;;10.35;6.05;;;;;;;22.63;100.00;99950.53;5029618;28;20032;-65
2023/06/22 02:31:52;;;;;;;10.98;6.15;;;;;;;22.64;100.00;99957.66;5030351;28;20060;-65
2023/06/22 02:34:18;;;;;;;10.98;6.72;;;;;;;22.64;100.00;99954.94;5029397;28;20172;-65
2023/06/22 02:36:53;;;;;;;10.45;4.93;;;;;;;22.63;100.00;99948.69;5030215;28;20760;-65
2023/06/22 02:39:19;;;;;;;11.50;6.45;;;;;;;22.62;100.00;99937.97;5029493;28;20457;-65
2023/06/22 02:41:45;;;;;;;9.65;5.68;;;;;;;22.61;100.00;99930.81;5029190;28;20482;-65
2023/06/22 02:44:10;;;;;;;11.35;6.00;;;;;;;22.59;100.00;99930.06;5025992;28;20036;-65
2023/06/22 02:46:36;;;;;;;9.40;5.95;;;;;;;22.56;100.00;99920.34;5028646;28;20041;-65
2023/06/22 02:49:01;;;;;;;14.25;6.30;;;;;;;22.54;100.00;99913.31;5027898;28;20036;-65
2023/06/22 02:51:26;;;;;;;11.88;6.07;;;;;;;22.57;100.00;99919.34;5027623;28;20025;-64
2023/06/22 02:53:56;;;;;;;9.75;5.90;;;;;;;22.59;100.00;99911.97;5027590;28;20029;-64
2023/06/22 02:56:24;;;;;;;11.43;5.60;;;;;;;22.58;100.00;99914.81;5028802;28;20029;-65
2023/06/22 02:58:50;;;;;;;10.07;5.90;;;;;;;22.59;100.00;99921.94;5028331;28;20111;-64
2023/06/22 03:01:16;;;;;;;12.23;5.68;;;;;;;22.54;100.00;99914.19;5028242;28;20017;-64
2023/06/22 03:03:41;;;;;;;11.70;5.43;;;;;;;22.51;100.00;99911.72;5041067;28;20048;-65
2023/06/22 03:06:06;;;;;;;12.60;6.47;;;;;;;22.47;100.00;99909.38;5049181;28;20124;-65
2023/06/22 03:08:32;;;;;;;9.90;6.13;;;;;;;22.50;100.00;99914.56;5049380;28;20025;-64
2023/06/22 03:10:57;;;;;;;9.70;5.47;;;;;;;22.47;100.00;99918.34;5048645;28;20037;-64
2023/06/22 03:13:23;;;;;;;9.27;5.40;;;;;;;22.46;100.00;99915.78;5049168;28;20040;-64
2023/06/22 03:15:48;;;;;;;10.95;6.00;;;;;;;22.47;100.00;99915.66;5047948;28;20792;-65
2023/06/22 03:18:15;;;;;;;8.82;5.47;;;;;;;22.44;100.00;99918.63;5048595;28;20480;-64
2023/06/22 03:20:41;;;;;;;9.05;5.38;;;;;;;22.44;100.00;99918.63;5049087;28;20044;-64
2023/06/22 03:23:06;;;;;;;11.82;5.63;;;;;;;22.47;100.00;99917.53;5049179;28;20060;-65
2023/06/22 03:25:33;;;;;;;9.77;6.22;;;;;;;22.45;100.00;99923.06;5049102;28;20033;-64
2023/06/22 03:28:00;;;;;;;11.82;5.93;;;;;;;22.45;100.00;99923.06;5047782;28;20032;-64
2023/06/22 03:30:26;;;;;;;10.43;5.20;;;;;;;22.48;100.00;99921.94;5048886;28;20033;-64
2023/06/22 03:32:51;;;;;;;11.98;5.70;;;;;;;22.43;100.00;99911.50;5047816;28;20025;-65
2023/06/22 03:35:17;;;;;;;10.20;6.35;;;;;;;22.47;100.00;99907.50;5047663;28;20708;-64
2023/06/22 03:37:42;;;;;;;9.23;5.68;;;;;;;22.45;100.00;99903.22;5044746;28;20133;-64
2023/06/22 03:40:08;;;;;;;10.70;5.63;;;;;;;22.41;100.00;99908.03;5045838;28;20485;-65
2023/06/22 03:42:37;;;;;;;13.15;5.65;;;;;;;22.45;100.00;99901.38;5034238;28;20033;-65
2023/06/22 03:45:03;;;;;;;8.52;4.75;;;;;;;22.47;100.00;99903.97;5048150;28;20064;-64
2023/06/22 03:47:29;;;;;;;12.65;5.45;;;;;;;22.45;100.00;99898.69;5048897;28;20135;-64
2023/06/22 03:49:54;;;;;;;9.57;5.25;;;;;;;22.50;100.00;99901.88;5047970;28;20665;-64
2023/06/22 03:52:21;;;;;;;10.05;5.38;;;;;;;22.50;100.00;99896.44;5048480;28;20028;-64
2023/06/22 03:54:47;;;;;;;13.85;5.85;;;;;;;22.47;100.00;99888.53;5048874;28;20028;-64
2023/06/22 03:57:12;;;;;;;11.07;5.55;;;;;;;22.52;100.00;99891.72;5047735;28;20017;-64
2023/06/22 03:59:38;;;;;;;10.68;6.03;;;;;;;22.53;100.00;99896.22;5048578;28;20071;-64
2023/06/22 04:02:03;;;;;;;9.30;5.22;;;;;;;22.50;100.00;99893.72;5047599;28;20033;-64
2023/06/22 04:04:29;;;;;;;9.05;5.85;;;;;;;22.56;100.00;99892.38;5047328;28;20049;-63
2023/06/22 04:06:54;;;;;;;16.20;6.50;;;;;;;22.55;100.00;99894.25;5048439;28;20032;-64
2023/06/22 04:09:21;;;;;;;10.48;5.70;;;;;;;22.55;100.00;99886.13;5048268;28;20511;-64
2023/06/22 04:11:46;;;;;;;15.90;6.20;;;;;;;22.62;100.00;99884.59;5047525;28;20043;-64
2023/06/22 04:14:12;;;;;;;11.75;5.88;;;;;;;22.63;100.00;99891.75;5048036;28;20028;-64
2023/06/22 04:16:37;;;;;;;11.10;5.28;;;;;;;22.64;100.00;99890.75;5048193;28;20021;-64
2023/06/22 04:19:03;;;;;;;9.30;5.70;;;;;;;22.65;100.00;99888.91;5047657;28;20021;-64
2023/06/22 04:21:28;;;;;;;11.88;5.45;;;;;;;22.63;100.00;99889.03;5047611;28;20843;-64
2023/06/22 04:23:53;;;;;;;9.43;5.18;;;;;;;22.60;100.00;99875.72;5048118;28;20029;-64
2023/06/22 04:26:20;;;;;;;11.02;5.85;;;;;;;22.65;100.00;99876.19;5047318;28;20017;-64
2023/06/22 04:28:51;;;;;;;10.00;5.20;;;;;;;22.66;100.00;99868.91;5048023;28;20610;-64
2023/06/22 04:31:17;;;;;;;11.30;5.18;;;;;;;22.70;100.00;99871.22;5047006;28;20447;-64
2023/06/22 04:33:42;;;;;;;10.15;5.75;;;;;;;22.71;100.00;99869.41;5048153;28;20063;-64
2023/06/22 04:36:07;;;;;;;9.82;5.32;;;;;;;22.73;100.00;99865.56;5047416;28;20112;-64
2023/06/22 04:38:33;;;;;;;10.32;5.43;;;;;;;22.78;100.00;99860.63;5031804;28;20029;-64
2023/06/22 04:41:01;;;;;;;9.43;5.72;;;;;;;22.83;100.00;99862.94;5047876;28;20033;-64
2023/06/22 04:43:30;;;;;;;9.10;5.20;;;;;;;22.92;100.00;99868.44;5047056;28;20044;-64
2023/06/22 04:45:55;;;;;;;10.90;5.20;;;;;;;22.97;100.00;99860.75;5047841;28;20107;-65
2023/06/22 04:48:21;;;;;;;10.77;5.50;;;;;;;23.03;100.00;99862.94;5047602;28;20103;-64
2023/06/22 04:50:46;;;;;;;10.68;5.30;;;;;;;23.12;100.00;99861.28;5046839;28;20028;-64
2023/06/22 04:53:12;;;;;;;9.48;5.28;;;;;;;23.18;100.00;99860.75;5047778;28;20029;-64
2023/06/22 04:55:41;;;;;;;12.45;5.65;;;;;;;23.13;100.00;99853.00;5047638;28;20024;-64
2023/06/22 04:58:07;;;;;;;9.18;4.93;;;;;;;23.16;100.00;99858.16;5047022;28;20024;-64
2023/06/22 05:00:36;;;;;;;12.65;5.72;;;;;;;23.20;100.00;99864.19;5046828;28;20036;-64
2023/06/22 05:03:03;;;;;;;11.85;5.28;;;;;;;23.23;100.00;99853.94;5041253;28;20041;-64
2023/06/22 05:05:28;;;;;;;10.27;5.10;;;;;;;23.31;100.00;99850.59;5027703;28;20025;-64
2023/06/22 05:07:59;;;;;;;11.50;6.07;;;;;;;23.42;100.00;99854.09;5027943;28;20040;-64
2023/06/22 05:10:25;;;;;;;10.88;5.32;;;;;;;23.50;100.00;99849.81;5035776;28;20048;-64
2023/06/22 05:12:51;;;;;;;8.75;4.75;;;;;;;23.62;100.00;99848.75;5048359;28;20043;-64
2023/06/22 05:15:19;;;;;;;10.93;5.75;;;;;;;23.70;100.00;99851.63;5051301;28;20025;-64
2023/06/22 05:17:45;;;;;;;9.13;4.88;;;;;;;23.73;100.00;99841.38;5051336;28;20029;-64
2023/06/22 05:20:11;;;;;;;11.00;5.47;;;;;;;23.86;100.00;99849.28;5049292;28;20025;-64
2023/06/22 05:22:38;;;;;;;8.02;4.82;;;;;;;23.92;100.00;99843.31;5050710;28;20056;-64
2023/06/22 05:25:06;;;;;;;9.95;5.40;;;;;;;23.89;100.00;99841.69;5049872;28;20124;-64
2023/06/22 05:27:31;;;;;;;12.23;5.00;;;;;;;24.02;99.56;99836.06;5048270;28;20017;-63
2023/06/22 05:29:56;;;;;;;11.27;5.13;;;;;;;24.08;98.58;99835.50;5050220;28;20025;-64
2023/06/22 05:32:22;;;;;;;10.23;6.10;;;;;;;24.05;98.21;99831.19;5051010;28;20499;-64
2023/06/22 05:34:47;;;;;;;10.95;5.38;;;;;;;24.16;97.03;99844.69;5050140;28;20117;-64
2023/06/22 05:37:12;;;;;;;9.57;5.28;;;;;;;24.28;96.45;99850.88;5050566;28;20044;-64
2023/06/22 05:39:38;;;;;;;11.07;5.32;;;;;;;24.40;96.15;99841.56;5050542;28;20043;-64
2023/06/22 05:42:07;;;;;;;8.52;4.82;;;;;;;24.40;95.73;99847.00;5050587;28;20492;-64
2023/06/22 05:44:33;;;;;;;10.95;5.05;;;;;;;24.42;95.77;99845.88;5036891;28;20029;-64
2023/06/22 05:46:59;;;;;;;8.48;4.70;;;;;;;24.54;95.46;99849.31;5050344;28;20040;-64
2023/06/22 05:49:29;;;;;;;9.02;5.15;;;;;;;24.63;94.99;99859.34;5049957;28;20033;-64
2023/06/22 05:51:55;;;;;;;9.82;5.47;;;;;;;24.69;93.90;99859.66;5050450;28;20039;-64
2023/06/22 05:54:20;;;;;;;8.75;4.75;;;;;;;24.78;92.97;99860.66;5050142;28;20029;-64
2023/06/22 05:56:45;;;;;;;9.23;4.85;;;;;;;24.94;93.19;99850.09;5050302;28;20032;-63
2023/06/22 05:59:12;;;;;;;13.32;4.60;;;;;;;25.12;92.88;99847.47;5049508;28;20025;-64
2023/06/22 06:01:37;;;;;;;8.77;4.97;;;;;;;25.33;91.25;99857.19;5049645;28;20033;-64
2023/06/22 06:04:09;;;;;;;10.23;5.45;;;;;;;25.48;90.46;99858.47;5049638;28;20052;-64
2023/06/22 06:06:36;;;;;;;8.23;4.63;;;;;;;25.61;89.55;99853.53;5043350;28;20036;-63
2023/06/22 06:09:05;;;;;;;13.48;5.18;;;;;;;25.76;89.47;99857.50;5046596;28;20040;-65
2023/06/22 06:11:30;;;;;;;9.73;5.28;;;;;;;25.85;86.99;99861.16;5046642;28;20036;-64
2023/06/22 06:13:56;;;;;;;7.53;5.00;;;;;;;26.00;86.70;99858.84;5049991;28;20037;-63
2023/06/22 06:16:22;;;;;;;12.55;4.85;;;;;;;26.14;86.09;99861.06;5046956;28;20021;-65
2023/06/22 06:18:49;;;;;;;8.05;5.13;;;;;;;26.13;84.95;99868.38;5050378;28;20040;-64
2023/06/22 06:21:15;;;;;;;9.43;5.20;;;;;;;26.20;85.24;99872.22;5049572;28;20036;-64
2023/06/22 06:23:40;;;;;;;9.25;4.38;;;;;;;26.31;84.59;99860.25;5049780;28;20402;-64
2023/06/22 06:26:06;;;;;;;8.57;4.78;;;;;;;26.57;84.03;99858.50;5045997;28;20036;-63
2023/06/22 06:28:33;;;;;;;9.65;4.35;;;;;;;26.71;83.10;99844.34;5048558;28;20544;-63
2023/06/22 06:30:58;;;;;;;8.68;4.93;;;;;;;26.84;83.09;99840.19;5048427;28;20047;-64
2023/06/22 06:33:24;;;;;;;8.07;4.40;;;;;;;27.03;82.63;99840.00;5031321;28;20028;-64
2023/06/22 06:35:53;;;;;;;10.68;5.60;;;;;;;27.15;80.98;99840.63;5049130;28;20123;-63
2023/06/22 06:38:18;;;;;;;9.38;4.72;;;;;;;27.17;80.07;99846.78;5038753;28;20373;-63
2023/06/22 06:40:45;;;;;;;11.80;4.35;;;;;;;27.27;80.23;99850.28;5048905;28;20039;-64
2023/06/22 06:43:10;;;;;;;8.23;3.60;;;;;;;27.31;78.88;99859.03;5048557;28;20081;-64
2023/06/22 06:45:35;;;;;;;9.48;4.38;;;;;;;27.52;78.00;99862.25;5044278;28;20044;-64
2023/06/22 06:48:01;;;;;;;8.25;4.30;;;;;;;27.63;77.53;99848.34;5044832;28;20119;-63
2023/06/22 06:50:27;;;;;;;8.35;4.10;;;;;;;27.72;76.68;99850.97;5046501;28;20028;-64
2023/06/22 06:52:53;;;;;;;7.30;4.22;;;;;;;27.62;75.86;99842.00;5049112;28;20048;-63
2023/06/22 06:55:19;;;;;;;11.82;4.55;;;;;;;27.62;75.47;99844.75;5048293;28;20105;-63
2023/06/22 06:57:48;;;;;;;8.38;4.32;;;;;;;27.72;76.23;99850.97;5032718;28;20389;-64
2023/06/22 07:00:14;;;;;;;9.82;4.07;;;;;;;27.93;76.82;99861.50;5029988;28;20040;-64
2023/06/22 07:02:42;;;;;;;7.70;4.63;;;;;;;28.12;75.69;99851.16;5046089;28;20041;-64
2023/06/22 07:05:08;;;;;;;8.32;4.57;;;;;;;28.42;74.78;99847.84;5048106;28;20452;-63
2023/06/22 07:07:34;;;;;;;7.57;3.97;;;;;;;28.83;73.02;99859.75;5047678;28;20045;-64
2023/06/22 07:09:59;;;;;;;8.13;4.60;;;;;;;29.08;72.88;99839.59;5049481;28;20036;-63
2023/06/22 07:12:25;;;;;;;7.93;3.95;;;;;;;29.03;69.25;99850.19;5048476;28;20084;-63
2023/06/22 07:14:52;;;;;;;9.13;4.50;;;;;;;29.01;71.26;99852.22;5049364;28;20100;-63
2023/06/22 07:17:17;;;;;;;8.27;4.15;;;;;;;29.17;69.21;99843.19;5048364;28;20033;-64
2023/06/22 07:19:43;;;;;;;6.47;3.60;;;;;;;29.23;66.96;99842.50;5048874;28;20079;-63
2023/06/22 07:22:08;;;;;;;7.40;4.20;;;;;;;29.09;69.36;99867.84;5037730;28;20049;-63
2023/06/22 07:24:33;;;;;;;8.73;4.22;;;;;;;28.83;68.18;99859.75;5036247;28;20082;-64
2023/06/22 07:26:59;;;;;;;8.27;4.50;;;;;;;28.73;67.47;99867.25;5049053;28;20032;-63
2023/06/22 07:29:26;;;;;;;8.93;4.45;;;;;;;28.92;69.93;99863.34;5049107;28;20451;-63
2023/06/22 07:31:52;;;;;;;6.93;3.97;;;;;;;29.06;68.82;99870.91;5047635;28;20108;-64
2023/06/22 07:34:17;;;;;;;7.40;3.90;;;;;;;29.33;69.43;99870.56;5048905;28;20100;-64
2023/06/22 07:36:43;;;;;;;7.80;4.70;;;;;;;29.39;67.63;99878.97;5045580;28;20041;-64
2023/06/22 07:39:09;;;;;;;8.63;4.65;;;;;;;29.58;66.39;99880.50;5045176;28;20037;-63
2023/06/22 07:41:34;;;;;;;10.88;4.28;;;;;;;29.91;64.80;99882.16;5048225;28;20047;-63
2023/06/22 07:43:59;;;;;;;7.40;4.13;;;;;;;30.14;63.93;99872.13;5048164;28;20513;-63
2023/06/22 07:46:25;;;;;;;8.05;4.38;;;;;;;30.36;62.84;99890.56;5047790;28;20067;-63
2023/06/22 07:48:51;;;;;;;9.63;5.10;;;;;;;30.55;62.03;99901.13;5040036;28;20044;-63
2023/06/22 07:51:16;;;;;;;9.15;4.45;;;;;;;30.70;62.95;99913.06;5045343;28;20029;-63
2023/06/22 07:53:42;;;;;;;8.85;4.32;;;;;;;30.89;62.11;99928.25;5048098;28;20036;-63
2023/06/22 07:56:10;;;;;;;10.57;5.13;;;;;;;31.06;62.48;99934.50;5048465;28;20143;-63
2023/06/22 07:58:35;;;;;;;7.40;4.18;;;;;;;31.22;60.70;99928.91;5038683;28;20121;-63
2023/06/22 08:01:01;;;;;;;15.63;4.88;;;;;;;31.33;60.75;99925.75;5039219;28;20144;-63
2023/06/22 08:03:26;;;;;;;10.05;4.68;;;;;;;31.30;58.56;99937.91;5044520;28;20052;-63
2023/06/22 08:05:52;;;;;;;7.85;4.13;;;;;;;31.57;59.67;99918.13;5044218;28;20041;-63
2023/06/22 08:08:17;;;;;;;8.30;4.25;;;;;;;31.67;58.25;99924.22;5047158;28;20020;-60
2023/06/22 08:10:43;;;;;;;9.35;5.05;;;;;;;31.93;57.00;99904.53;5046523;28;20143;-61
2023/06/22 08:13:08;;;;;;;6.93;4.13;;;;;;;32.44;57.42;99900.84;5048488;28;20033;-60
2023/06/22 08:15:34;;;;;;;9.40;4.00;;;;;;;32.59;55.36;99887.91;5042500;28;20028;-61
2023/06/22 08:18:00;;;;;;;8.45;4.05;;;;;;;32.91;54.47;99887.47;5033376;28;20745;-60
2023/06/22 08:20:26;;;;;;;8.88;4.68;;;;;;;33.22;53.03;99888.00;5037445;28;20060;-60
2023/06/22 08:22:53;;;;;;;8.43;4.22;;;;;;;32.70;54.81;99895.66;5041870;28;20041;-60
2023/06/22 08:25:19;;;;;;;8.20;4.28;;;;;;;32.11;56.98;99888.50;5026963;28;20042;-60
2023/06/22 08:27:46;;;;;;;8.32;4.10;;;;;;;31.68;57.05;99883.81;5030876;28;20033;-60
2023/06/22 08:30:12;;;;;;;7.38;4.35;;;;;;;31.14;60.91;99887.75;5039558;28;20025;-60
2023/06/22 08:32:37;;;;;;;7.13;4.07;;;;;;;30.85;62.05;99874.72;5026682;28;20794;-60
2023/06/22 08:35:03;;;;;;;8.18;4.70;;;;;;;30.81;61.85;99887.97;5027385;28;20029;-60
2023/06/22 08:37:35;;;;;;;8.25;4.68;;;;;;;30.66;64.52;99888.88;5035186;28;20107;-60
2023/06/22 08:40:07;;;;;;;11.00;4.72;;;;;;;30.56;63.27;99889.09;5036324;28;20496;-60
2023/06/22 08:42:33;;;;;;;9.80;4.25;;;;;;;31.02;62.62;99889.19;5040145;28;20051;-60
2023/06/22 08:44:58;;;;;;;8.15;4.20;;;;;;;31.25;62.74;99906.53;5046600;28;20033;-61
2023/06/22 08:47:24;;;;;;;7.38;4.40;;;;;;;31.14;62.58;99895.97;5045716;28;20533;-61
2023/06/22 08:49:49;;;;;;;8.32;4.25;;;;;;;31.08;62.38;99899.44;5028764;28;20026;-60
2023/06/22 08:52:15;;;;;;;6.85;4.22;;;;;;;31.05;62.50;99886.94;5027108;28;20553;-60
2023/06/22 08:54:40;;;;;;;7.18;4.40;;;;;;;31.43;63.50;99885.09;5039845;28;20040;-61
2023/06/22 08:57:06;;;;;;;7.78;4.43;;;;;;;32.01;61.04;99893.47;5029392;28;20037;-60
2023/06/22 08:59:32;;;;;;;8.80;5.00;;;;;;;32.20;59.43;99884.63;5045661;28;20082;-60
2023/06/22 09:01:57;;;;;;;8.77;5.07;;;;;;;32.32;59.44;99873.97;5046275;28;20037;-60
2023/06/22 09:04:23;;;;;;;11.98;5.22;;;;;;;32.25;60.04;99876.66;5046601;28;20061;-60
2023/06/22 09:06:49;;;;;;;11.30;5.00;;;;;;;32.35;59.15;99870.84;5034798;28;20029;-60
2023/06/22 09:09:16;;;;;;;9.77;5.15;;;;;;;32.22;57.62;99873.41;5036775;28;20025;-60
2023/06/22 09:11:41;;;;;;;11.73;4.53;;;;;;;31.95;56.77;99844.66;5046425;28;20036;-60
2023/06/22 09:14:07;;;;;;;8.02;4.50;;;;;;;31.87;59.83;99815.38;5045774;28;20423;-60
2023/06/22 09:16:32;;;;;;;8.68;4.53;;;;;;;31.95;60.09;99826.28;5045246;28;20475;-60
2023/06/22 09:18:57;;;;;;;10.40;4.72;;;;;;;31.98;59.22;99819.50;5043464;28;20029;-60
2023/06/22 09:21:23;;;;;;;9.15;4.75;;;;;;;31.88;58.73;99827.22;5029222;28;20028;-60
2023/06/22 09:23:51;;;;;;;12.02;4.88;;;;;;;31.61;61.53;99823.22;5047057;28;20090;-60
2023/06/22 09:26:20;;;;;;;11.32;4.70;;;;;;;31.43;62.08;99819.97;5046622;28;20104;-60
2023/06/22 09:28:46;;;;;;;11.02;5.13;;;;;;;31.17;62.51;99802.16;5036666;28;20473;-60
2023/06/22 09:31:12;;;;;;;8.52;4.65;;;;;;;30.99;63.72;99791.47;5043103;28;20107;-60
2023/06/22 09:33:40;;;;;;;10.48;4.53;;;;;;;30.95;66.07;99783.81;5046666;28;20266;-60
2023/06/22 09:36:07;;;;;;;8.15;4.32;;;;;;;31.00;65.99;99786.84;5027076;28;20464;-60
2023/06/22 09:38:39;;;;;;;12.88;4.60;;;;;;;31.00;63.92;99792.34;5026028;28;20392;-60
2023/06/22 09:41:05;;;;;;;11.48;4.80;;;;;;;31.18;64.34;99790.09;5033690;28;20033;-60
2023/06/22 09:43:32;;;;;;;16.15;5.18;;;;;;;31.45;61.97;99808.78;5027055;28;20512;-60
2023/06/22 09:46:01;;;;;;;8.85;4.57;;;;;;;31.98;59.73;99811.25;5039705;28;20069;-60
2023/06/22 09:48:28;;;;;;;8.65;4.93;;;;;;;32.45;59.16;99808.94;5045835;28;20032;-60
2023/06/22 09:50:53;;;;;;;9.18;4.90;;;;;;;32.48;57.72;99804.94;5039763;28;20409;-60
2023/06/22 09:53:19;;;;;;;12.52;4.78;;;;;;;32.32;58.20;99803.25;5042826;28;20039;-61
2023/06/22 09:55:44;;;;;;;9.57;4.97;;;;;;;32.29;58.20;99792.59;5045077;28;20037;-60
2023/06/22 09:58:10;;;;;;;7.75;4.88;;;;;;;32.29;59.64;99798.09;5044346;28;20021;-61
2023/06/22 10:00:35;;;;;;;15.25;5.03;;;;;;;32.13;59.76;99779.94;5048091;28;20116;-61
2023/06/22 10:03:00;;;;;;;8.20;4.75;;;;;;;32.05;59.47;99787.44;5032631;28;20156;-60
2023/06/22 10:05:26;;;;;;;8.25;4.28;;;;;;;31.94;59.91;99782.44;5034014;28;20037;-60
2023/06/22 10:07:52;;;;;;;8.50;4.70;;;;;;;31.99;61.90;99778.03;5030646;28;20022;-61
2023/06/22 10:10:17;;;;;;;9.30;4.65;;;;;;;32.07;61.61;99783.47;5047056;28;20516;-60
2023/06/22 10:12:56;;;;;;;10.55;4.55;;;;;;;32.03;60.73;99775.75;5048954;28;20404;-61
2023/06/22 10:15:22;;;;;;;9.13;4.43;;;;;;;31.93;61.96;99780.72;5036630;28;20025;-60
2023/06/22 10:17:47;;;;;;;8.60;4.50;;;;;;;31.90;59.02;99757.19;5050365;28;20058;-60
2023/06/22 10:20:13;;;;;;;9.48;4.53;;;;;;;31.85;60.83;99756.91;5050391;28;20532;-60
2023/06/22 10:22:43;;;;;;;8.77;4.82;;;;;;;31.79;60.68;99748.53;5050208;28;20040;-61
2023/06/22 10:25:10;;;;;;;7.07;4.20;;;;;;;31.77;63.06;99743.25;5050022;28;20033;-61
2023/06/22 10:27:35;;;;;;;12.05;5.18;;;;;;;31.90;59.67;99761.84;5050196;28;20028;-60
2023/06/22 10:30:01;;;;;;;8.95;4.18;;;;;;;31.93;57.41;99758.69;5049316;28;20033;-61
2023/06/22 10:32:28;;;;;;;10.73;4.40;;;;;;;32.25;58.51;99765.66;5049890;28;20078;-60
2023/06/22 10:34:54;;;;;;;8.20;4.55;;;;;;;32.66;56.18;99775.91;5049324;28;20783;-61
2023/06/22 10:37:19;;;;;;;9.05;4.95;;;;;;;33.08;55.72;99770.38;5048164;28;20045;-61
2023/06/22 10:39:44;;;;;;;8.68;5.20;;;;;;;33.27;55.96;99782.63;5048678;28;20033;-61
2023/06/22 10:42:10;;;;;;;12.35;5.10;;;;;;;33.32;54.36;99775.44;5047931;28;20028;-61
2023/06/22 10:44:35;;;;;;;11.63;4.93;;;;;;;33.23;53.48;99787.66;5048282;28;20051;-60
2023/06/22 10:47:01;;;;;;;13.63;5.40;;;;;;;33.20;56.30;99771.53;5048378;28;20032;-61
2023/06/22 10:49:26;;;;;;;12.43;4.47;;;;;;;33.00;55.96;99773.28;5047598;28;20108;-60
2023/06/22 10:51:51;;;;;;;9.77;5.05;;;;;;;33.03;59.48;99770.13;5046500;28;20021;-61
2023/06/22 10:54:19;;;;;;;8.88;4.88;;;;;;;33.15;59.18;99763.00;5048189;28;20116;-61
2023/06/22 10:56:44;;;;;;;9.93;6.03;;;;;;;33.12;54.33;99776.34;5049841;28;20120;-61
2023/06/22 10:59:10;;;;;;;8.85;5.40;;;;;;;33.17;56.73;99766.44;5049468;28;20416;-61
2023/06/22 11:01:36;;;;;;;10.32;5.70;;;;;;;33.21;57.80;99762.19;5049715;28;20098;-61
2023/06/22 11:04:02;;;;;;;9.95;4.70;;;;;;;33.28;57.54;99745.69;5048344;28;20508;-61
2023/06/22 11:06:27;;;;;;;8.65;4.53;;;;;;;33.32;57.10;99747.00;5049228;28;20108;-61
2023/06/22 11:08:53;;;;;;;9.98;4.95;;;;;;;33.81;54.64;99741.38;5049388;28;20076;-61
2023/06/22 11:11:18;;;;;;;7.50;4.45;;;;;;;34.45;54.28;99745.50;5049026;28;20091;-60
2023/06/22 11:13:44;;;;;;;8.48;4.97;;;;;;;34.90;51.94;99755.81;5034770;28;20109;-61
2023/06/22 11:16:10;;;;;;;11.50;5.47;;;;;;;34.80;51.29;99765.53;5040833;28;20028;-61
2023/06/22 11:18:36;;;;;;;9.23;4.95;;;;;;;34.78;51.90;99774.03;5048976;28;20487;-61
2023/06/22 11:21:01;;;;;;;10.55;4.80;;;;;;;34.81;51.26;99779.13;5049138;28;20032;-61
2023/06/22 11:23:27;;;;;;;10.95;4.85;;;;;;;34.22;51.24;99786.41;5032949;28;20076;-61
2023/06/22 11:25:53;;;;;;;12.68;4.93;;;;;;;33.93;55.34;99786.72;5034133;28;20654;-61